createdAt,value
2023-02-01T00:00:13.559Z,5.20
2023-02-01T00:02:41.916Z,5.20
2023-02-01T00:05:12.075Z,5.10
2023-02-01T00:07:40.184Z,5.10
2023-02-01T00:10:10.071Z,5.10
2023-02-01T00:12:38.114Z,5.10
2023-02-01T00:15:06.923Z,5.20
2023-02-01T00:17:34.927Z,5.10
2023-02-01T00:20:03.094Z,5.10
2023-02-01T00:22:32.460Z,5.10
2023-02-01T00:25:00.408Z,5.10
2023-02-01T00:27:28.420Z,5.10
2023-02-01T00:29:56.993Z,5.00
2023-02-01T00:32:24.963Z,5.00
2023-02-01T00:34:52.984Z,5.00
2023-02-01T00:37:20.982Z,5.00
2023-02-01T00:39:50.716Z,5.00
2023-02-01T00:42:18.707Z,5.00
2023-02-01T00:44:46.725Z,5.00
2023-02-01T00:47:14.821Z,5.00
2023-02-01T00:49:42.789Z,5.00
2023-02-01T00:52:10.767Z,5.00
2023-02-01T00:54:38.816Z,4.90
2023-02-01T00:57:08.152Z,4.90
2023-02-01T00:59:36.155Z,4.90
2023-02-01T01:02:04.172Z,4.90
2023-02-01T01:04:32.312Z,4.90
2023-02-01T01:07:00.307Z,4.90
2023-02-01T01:09:28.361Z,4.90
2023-02-01T01:11:56.355Z,4.90
2023-02-01T01:14:26.034Z,4.90
2023-02-01T01:16:54.009Z,4.90
2023-02-01T01:19:22.025Z,4.80
2023-02-01T01:21:50.014Z,4.80
2023-02-01T01:24:18.039Z,4.80
2023-02-01T01:26:46.221Z,4.90
2023-02-01T01:29:14.304Z,4.90
2023-02-01T01:31:43.758Z,4.90
2023-02-01T01:34:11.798Z,4.90
2023-02-01T01:36:39.841Z,4.90
2023-02-01T01:39:08.643Z,4.90
2023-02-01T01:41:36.710Z,4.90
2023-02-01T01:44:06.651Z,5.00
2023-02-01T01:46:37.348Z,5.00
2023-02-01T01:49:12.625Z,4.90
2023-02-01T01:51:43.646Z,4.90
2023-02-01T01:54:17.274Z,5.00
2023-02-01T01:56:48.849Z,4.90
2023-02-01T01:59:17.194Z,5.00
2023-02-01T02:01:45.735Z,5.00
2023-02-01T02:04:15.557Z,5.00
2023-02-01T02:06:49.224Z,5.00
2023-02-01T02:09:18.301Z,4.90
2023-02-01T02:11:46.384Z,5.00
2023-02-01T02:14:17.609Z,4.90
2023-02-01T02:17:01.122Z,4.90
2023-02-01T02:20:01.583Z,4.90
2023-02-01T02:22:52.240Z,4.90
2023-02-01T02:25:46.368Z,4.90
2023-02-01T02:28:47.632Z,4.90
2023-02-01T02:31:40.326Z,4.90
2023-02-01T02:34:17.266Z,4.80
2023-02-01T02:36:57.145Z,4.80
2023-02-01T02:39:36.668Z,4.80
2023-02-01T02:42:32.375Z,4.80
2023-02-01T02:45:24.484Z,4.80
2023-02-01T02:47:58.497Z,4.80
2023-02-01T02:50:48.928Z,4.80
2023-02-01T02:53:38.644Z,4.80
2023-02-01T02:56:26.663Z,4.80
2023-02-01T02:59:13.455Z,4.80
2023-02-01T03:02:00.776Z,4.80
2023-02-01T03:04:28.912Z,4.80
2023-02-01T03:06:58.444Z,4.80
2023-02-01T03:09:33.048Z,4.80
2023-02-01T03:12:24.260Z,4.80
2023-02-01T03:14:57.044Z,4.80
2023-02-01T03:17:32.000Z,4.80
2023-02-01T03:20:03.283Z,4.80
2023-02-01T03:22:35.033Z,4.80
2023-02-01T03:25:06.553Z,4.80
2023-02-01T03:27:39.745Z,4.80
2023-02-01T03:30:13.149Z,4.80
2023-02-01T03:32:59.064Z,4.80
2023-02-01T03:35:31.551Z,4.80
2023-02-01T03:38:09.871Z,4.90
2023-02-01T03:40:39.684Z,4.90
2023-02-01T03:43:11.533Z,4.90
2023-02-01T03:45:43.806Z,5.00
2023-02-01T03:48:14.700Z,5.00
2023-02-01T03:50:49.565Z,4.90
2023-02-01T03:53:21.435Z,5.00
2023-02-01T03:55:50.093Z,5.00
2023-02-01T03:58:19.932Z,5.00
2023-02-01T04:00:53.377Z,5.00
2023-02-01T04:03:22.663Z,5.00
2023-02-01T04:05:50.850Z,5.00
2023-02-01T04:08:22.526Z,5.00
2023-02-01T04:10:50.637Z,5.10
2023-02-01T04:13:18.776Z,5.10
2023-02-01T04:15:47.600Z,5.10
2023-02-01T04:18:15.619Z,5.10
2023-02-01T04:20:45.229Z,5.00
2023-02-01T04:23:13.304Z,5.10
2023-02-01T04:25:42.806Z,5.10
2023-02-01T04:28:10.910Z,5.10
2023-02-01T04:30:39.134Z,5.10
2023-02-01T04:33:07.359Z,5.10
2023-02-01T04:35:35.984Z,5.10
2023-02-01T04:38:04.051Z,5.10
2023-02-01T04:40:32.090Z,5.10
2023-02-01T04:43:02.770Z,5.10
2023-02-01T04:45:30.846Z,5.10
2023-02-01T04:47:58.943Z,5.10
2023-02-01T04:50:27.047Z,5.10
2023-02-01T04:52:55.135Z,5.20
2023-02-01T04:55:23.237Z,5.20
2023-02-01T04:57:51.321Z,5.20
2023-02-01T05:00:21.628Z,5.20
2023-02-01T05:02:49.834Z,5.20
2023-02-01T05:05:18.055Z,5.20
2023-02-01T05:07:47.489Z,5.20
2023-02-01T05:10:15.589Z,5.20
2023-02-01T05:13:03.111Z,5.20
2023-02-01T05:15:33.105Z,5.20
2023-02-01T05:18:01.200Z,5.20
2023-02-01T05:20:29.224Z,5.20
2023-02-01T05:22:57.259Z,5.20
2023-02-01T05:25:25.343Z,5.20
2023-02-01T05:27:53.346Z,5.20
2023-02-01T05:30:21.895Z,5.20
2023-02-01T05:32:53.683Z,5.20
2023-02-01T05:35:22.285Z,5.30
2023-02-01T05:37:51.016Z,5.30
2023-02-01T05:40:19.411Z,5.30
2023-02-01T05:42:47.480Z,5.30
2023-02-01T05:45:15.619Z,5.30
2023-02-01T05:47:43.943Z,5.20
2023-02-01T05:50:13.433Z,5.30
2023-02-01T05:52:41.494Z,5.30
2023-02-01T05:55:10.093Z,5.30
2023-02-01T05:57:38.131Z,5.30
2023-02-01T06:00:07.395Z,5.30
2023-02-01T06:02:35.430Z,5.30
2023-02-01T06:05:03.461Z,5.30
2023-02-01T06:07:33.567Z,5.30
2023-02-01T06:10:01.695Z,5.30
2023-02-01T06:12:30.240Z,5.30
2023-02-01T06:15:00.238Z,5.20
2023-02-01T06:17:28.268Z,5.20
2023-02-01T06:19:56.276Z,5.20
2023-02-01T06:22:24.456Z,5.10
2023-02-01T06:24:54.014Z,5.10
2023-02-01T06:27:22.674Z,5.00
2023-02-01T06:29:50.817Z,5.00
2023-02-01T06:32:19.514Z,5.00
2023-02-01T06:34:47.557Z,5.00
2023-02-01T06:37:16.089Z,5.00
2023-02-01T06:39:44.304Z,5.00
2023-02-01T06:42:14.814Z,5.00
2023-02-01T06:44:43.246Z,5.00
2023-02-01T06:47:11.623Z,5.00
2023-02-01T06:49:39.791Z,4.90
2023-02-01T06:52:08.119Z,5.00
2023-02-01T06:54:39.028Z,5.00
2023-02-01T06:57:07.245Z,5.00
2023-02-01T06:59:37.181Z,5.00
2023-02-01T07:02:05.596Z,5.00
2023-02-01T07:04:34.409Z,5.00
2023-02-01T07:07:02.615Z,5.10
2023-02-01T07:09:31.646Z,5.00
2023-02-01T07:11:59.855Z,5.00
2023-02-01T07:14:27.879Z,5.10
2023-02-01T07:16:57.988Z,5.10
2023-02-01T07:19:26.207Z,5.10
2023-02-01T07:21:54.529Z,5.10
2023-02-01T07:24:24.613Z,5.10
2023-02-01T07:26:52.951Z,5.10
2023-02-01T07:29:21.771Z,5.10
2023-02-01T07:31:49.756Z,5.10
2023-02-01T07:34:19.206Z,5.10
2023-02-01T07:36:47.235Z,5.10
2023-02-01T07:39:15.180Z,5.20
2023-02-01T07:41:43.147Z,5.20
2023-02-01T07:44:11.672Z,5.20
2023-02-01T07:46:40.332Z,5.30
2023-02-01T07:49:08.467Z,5.20
2023-02-01T07:51:37.852Z,5.20
2023-02-01T07:54:05.879Z,5.20
2023-02-01T07:56:33.868Z,5.20
2023-02-01T07:59:02.419Z,5.10
2023-02-01T08:01:31.044Z,5.10
2023-02-01T08:04:00.826Z,5.10
2023-02-01T08:06:30.507Z,5.10
2023-02-01T08:09:00.187Z,5.10
2023-02-01T08:11:28.465Z,5.10
2023-02-01T08:13:56.812Z,5.10
2023-02-01T08:16:25.633Z,5.10
2023-02-01T08:18:54.296Z,5.10
2023-02-01T08:21:24.649Z,5.20
2023-02-01T08:23:53.305Z,5.10
2023-02-01T08:26:24.924Z,5.20
2023-02-01T08:28:54.859Z,5.20
2023-02-01T08:31:24.908Z,5.10
2023-02-01T08:33:56.871Z,5.10
2023-02-01T08:36:26.090Z,5.10
2023-02-01T08:38:54.334Z,5.10
2023-02-01T08:41:25.385Z,5.00
2023-02-01T08:43:55.125Z,5.10
2023-02-01T08:46:23.734Z,5.00
2023-02-01T08:48:52.251Z,5.00
2023-02-01T08:51:22.318Z,5.00
2023-02-01T08:53:50.699Z,5.00
2023-02-01T08:56:20.592Z,5.00
2023-02-01T08:58:50.029Z,5.00
2023-02-01T09:01:19.088Z,5.00
2023-02-01T09:03:47.430Z,5.00
2023-02-01T09:06:17.382Z,4.90
2023-02-01T09:08:45.699Z,4.90
2023-02-01T09:11:16.312Z,4.90
2023-02-01T09:13:45.565Z,4.80
2023-02-01T09:16:15.185Z,4.80
2023-02-01T09:18:55.418Z,4.90
2023-02-01T09:25:21.505Z,4.80
2023-02-01T09:27:49.623Z,4.80
2023-02-01T09:30:18.005Z,4.80
2023-02-01T09:32:47.527Z,4.80
2023-02-01T09:35:15.755Z,4.90
2023-02-01T09:37:43.959Z,4.90
2023-02-01T09:40:17.215Z,4.90
2023-02-01T09:43:11.561Z,4.80
2023-02-01T09:45:48.173Z,4.80
2023-02-01T09:48:22.271Z,4.80
2023-02-01T09:50:55.191Z,4.80
2023-02-01T09:53:29.810Z,4.80
2023-02-01T09:56:04.693Z,4.80
2023-02-01T09:58:37.456Z,4.80
2023-02-01T10:01:07.388Z,4.80
2023-02-01T10:03:38.598Z,4.90
2023-02-01T10:06:31.686Z,4.90
2023-02-01T10:09:18.175Z,4.90
2023-02-01T10:12:14.328Z,4.90
2023-02-01T10:14:58.237Z,4.80
2023-02-01T10:17:46.245Z,4.80
2023-02-01T10:20:24.007Z,4.80
2023-02-01T10:23:23.214Z,4.80
2023-02-01T10:25:55.877Z,4.90
2023-02-01T10:28:26.963Z,4.90
2023-02-01T10:30:58.508Z,4.90
2023-02-01T10:33:34.345Z,4.90
2023-02-01T10:36:12.571Z,5.00
2023-02-01T10:38:40.655Z,4.90
2023-02-01T10:41:14.917Z,4.90
2023-02-01T10:43:44.213Z,4.90
2023-02-01T10:46:12.327Z,4.90
2023-02-01T10:48:41.847Z,5.00
2023-02-01T10:51:16.881Z,5.00
2023-02-01T10:53:50.259Z,5.00
2023-02-01T10:56:24.854Z,5.10
2023-02-01T10:58:54.119Z,5.20
2023-02-01T11:01:24.281Z,5.20
2023-02-01T11:03:57.318Z,5.30
2023-02-01T11:06:30.629Z,5.30
2023-02-01T11:09:00.599Z,5.40
2023-02-01T11:11:28.724Z,5.50
2023-02-01T11:14:00.032Z,5.50
2023-02-01T11:16:36.265Z,5.70
2023-02-01T11:19:05.179Z,5.80
2023-02-01T11:21:35.205Z,5.80
2023-02-01T11:24:05.074Z,5.80
2023-02-01T11:26:33.975Z,5.80
2023-02-01T11:29:06.160Z,5.80
2023-02-01T11:31:35.994Z,5.80
2023-02-01T11:34:09.527Z,5.80
2023-02-01T11:36:40.750Z,5.90
2023-02-01T11:39:27.574Z,6.00
2023-02-01T11:42:03.845Z,6.10
2023-02-01T11:44:37.724Z,6.20
2023-02-01T11:47:27.793Z,6.20
2023-02-01T11:49:57.395Z,6.30
2023-02-01T11:52:51.640Z,6.40
2023-02-01T11:55:44.271Z,6.50
2023-02-01T11:58:31.442Z,6.60
2023-02-01T12:01:17.405Z,6.70
2023-02-01T12:04:18.971Z,6.80
2023-02-01T12:06:52.280Z,6.80
2023-02-01T12:09:36.380Z,6.80
2023-02-01T12:12:14.257Z,6.80
2023-02-01T12:14:59.530Z,6.90
2023-02-01T12:17:51.162Z,6.80
2023-02-01T12:20:37.657Z,6.70
2023-02-01T12:23:20.304Z,6.60
2023-02-01T12:26:05.551Z,6.60
2023-02-01T12:28:57.253Z,6.60
2023-02-01T12:31:48.224Z,6.60
2023-02-01T12:34:31.420Z,6.60
2023-02-01T12:37:07.754Z,6.60
2023-02-01T12:39:42.974Z,6.60
2023-02-01T12:42:18.350Z,6.60
2023-02-01T12:44:52.876Z,6.60
2023-02-01T12:47:27.032Z,6.60
2023-02-01T12:49:59.680Z,6.60
2023-02-01T12:52:37.342Z,6.60
2023-02-01T12:55:12.361Z,6.50
2023-02-01T12:57:45.698Z,6.60
2023-02-01T13:00:24.423Z,6.50
2023-02-01T13:02:58.576Z,6.40
2023-02-01T13:05:31.120Z,6.40
2023-02-01T13:08:04.077Z,6.30
2023-02-01T13:10:38.808Z,6.20
2023-02-01T13:13:13.981Z,6.20
2023-02-01T13:15:45.855Z,6.20
2023-02-01T13:18:20.242Z,6.10
2023-02-01T13:20:54.076Z,6.10
2023-02-01T13:23:28.112Z,6.20
2023-02-01T13:25:56.972Z,6.20
2023-02-01T13:28:31.570Z,6.10
2023-02-01T13:31:29.552Z,6.10
2023-02-01T13:34:20.657Z,6.10
2023-02-01T13:36:58.462Z,6.10
2023-02-01T13:40:10.755Z,6.20
2023-02-01T13:42:49.022Z,6.20
2023-02-01T13:45:23.138Z,6.20
2023-02-01T13:47:54.125Z,6.20
2023-02-01T13:50:25.912Z,6.20
2023-02-01T13:52:57.000Z,6.30
2023-02-01T13:55:34.845Z,6.30
2023-02-01T13:58:14.453Z,6.40
2023-02-01T14:00:45.048Z,6.40
2023-02-01T14:03:17.060Z,6.40
2023-02-01T14:06:16.676Z,6.40
2023-02-01T14:09:01.026Z,6.40
2023-02-01T14:11:41.509Z,6.40
2023-02-01T14:14:43.507Z,6.40
2023-02-01T14:17:43.456Z,6.40
2023-02-01T14:20:44.706Z,6.30
2023-02-01T14:23:32.936Z,6.30
2023-02-01T14:26:20.370Z,6.30
2023-02-01T14:29:07.021Z,6.20
2023-02-01T14:31:55.958Z,6.30
2023-02-01T14:34:33.112Z,6.30
2023-02-01T14:37:03.284Z,6.30
2023-02-01T14:39:54.260Z,6.30
2023-02-01T14:42:26.941Z,6.20
2023-02-01T14:44:58.913Z,6.30
2023-02-01T14:47:35.538Z,6.20
2023-02-01T14:50:34.504Z,6.20
2023-02-01T14:53:24.561Z,6.20
2023-02-01T14:55:59.773Z,6.20
2023-02-01T14:58:42.295Z,6.10
2023-02-01T15:01:20.728Z,6.10
2023-02-01T15:04:02.705Z,6.10
2023-02-01T15:06:35.711Z,6.10
2023-02-01T15:09:26.535Z,6.10
2023-02-01T15:12:00.834Z,6.10
2023-02-01T15:14:30.958Z,6.10
2023-02-01T15:16:59.153Z,6.10
2023-02-01T15:19:29.127Z,6.10
2023-02-01T15:22:00.029Z,6.10
2023-02-01T15:24:29.752Z,6.10
2023-02-01T15:27:04.584Z,6.10
2023-02-01T15:29:33.455Z,6.10
2023-02-01T15:32:02.206Z,6.10
2023-02-01T15:34:48.857Z,6.10
2023-02-01T15:37:19.665Z,6.00
2023-02-01T15:40:20.741Z,5.90
2023-02-01T15:42:54.109Z,5.80
2023-02-01T15:45:25.129Z,5.70
2023-02-01T15:47:56.600Z,5.70
2023-02-01T15:50:26.372Z,5.70
2023-02-01T15:52:57.462Z,5.60
2023-02-01T15:55:31.668Z,5.60
2023-02-01T15:57:59.699Z,5.60
2023-02-01T16:00:31.001Z,5.60
2023-02-01T16:03:00.754Z,5.60
2023-02-01T16:05:34.907Z,5.50
2023-02-01T16:08:09.112Z,5.50
2023-02-01T16:10:42.468Z,5.50
2023-02-01T16:13:10.590Z,5.50
2023-02-01T16:15:38.852Z,5.50
2023-02-01T16:18:08.748Z,5.40
2023-02-01T16:20:37.223Z,5.40
2023-02-01T16:23:07.371Z,5.40
2023-02-01T16:25:35.941Z,5.30
2023-02-01T16:28:04.011Z,5.30
2023-02-01T16:30:32.076Z,5.30
2023-02-01T16:33:03.563Z,5.30
2023-02-01T16:35:36.750Z,5.30
2023-02-01T16:38:09.643Z,5.20
2023-02-01T16:40:38.029Z,5.20
2023-02-01T16:43:14.058Z,5.20
2023-02-01T16:45:43.417Z,5.20
2023-02-01T16:48:18.635Z,5.20
2023-02-01T16:50:48.905Z,5.20
2023-02-01T16:53:19.835Z,5.20
2023-02-01T16:55:50.342Z,5.20
2023-02-01T16:58:18.940Z,5.20
2023-02-01T17:00:47.702Z,5.20
2023-02-01T17:03:17.473Z,5.20
2023-02-01T17:05:47.673Z,5.20
2023-02-01T17:08:20.513Z,5.20
2023-02-01T17:10:48.663Z,5.20
2023-02-01T17:13:17.618Z,5.20
2023-02-01T17:15:52.990Z,5.10
2023-02-01T17:18:21.221Z,5.00
2023-02-01T17:20:52.176Z,5.00
2023-02-01T17:23:22.023Z,4.90
2023-02-01T17:25:50.003Z,4.90
2023-02-01T17:28:18.018Z,4.90
2023-02-01T17:30:46.186Z,4.90
2023-02-01T17:33:22.797Z,4.90
2023-02-01T17:35:51.454Z,4.90
2023-02-01T17:38:21.156Z,4.80
2023-02-01T17:40:49.176Z,4.80
2023-02-01T17:43:19.919Z,4.80
2023-02-01T17:45:52.654Z,4.80
2023-02-01T17:48:22.001Z,4.80
2023-02-01T17:50:54.610Z,4.80
2023-02-01T17:53:24.649Z,4.80
2023-02-01T17:55:53.491Z,4.80
2023-02-01T17:58:22.711Z,4.80
2023-02-01T18:00:51.343Z,4.80
2023-02-01T18:03:24.888Z,4.90
2023-02-01T18:05:54.559Z,4.90
2023-02-01T18:08:26.226Z,4.90
2023-02-01T18:10:56.162Z,4.90
2023-02-01T18:13:24.137Z,4.90
2023-02-01T18:15:52.158Z,4.90
2023-02-01T18:18:20.211Z,4.90
2023-02-01T18:20:50.509Z,5.00
2023-02-01T18:23:22.189Z,4.90
2023-02-01T18:25:52.628Z,4.90
2023-02-01T18:28:21.219Z,4.90
2023-02-01T18:30:51.622Z,4.90
2023-02-01T18:33:21.789Z,4.90
2023-02-01T18:35:50.493Z,4.90
2023-02-01T18:38:18.559Z,4.90
2023-02-01T18:40:51.814Z,4.90
2023-02-01T18:43:20.139Z,4.90
2023-02-01T18:45:49.200Z,4.90
2023-02-01T18:48:19.447Z,4.90
2023-02-01T18:50:47.905Z,4.90
2023-02-01T18:53:20.068Z,4.90
2023-02-01T18:55:48.451Z,4.80
2023-02-01T18:58:18.938Z,4.70
2023-02-01T19:00:48.253Z,4.70
2023-02-01T19:03:18.623Z,4.70
2023-02-01T19:05:48.151Z,4.60
2023-02-01T19:08:16.349Z,4.60
2023-02-01T19:10:44.675Z,4.60
2023-02-01T19:13:14.205Z,4.50
2023-02-01T19:15:44.051Z,4.50
2023-02-01T19:18:12.175Z,4.50
2023-02-01T19:20:45.512Z,4.60
2023-02-01T19:23:13.922Z,4.60
2023-02-01T19:25:45.884Z,4.60
2023-02-01T19:28:14.092Z,4.60
2023-02-01T19:30:44.876Z,4.60
2023-02-01T19:33:13.096Z,4.60
2023-02-01T19:35:41.141Z,4.60
2023-02-01T19:38:09.947Z,4.70
2023-02-01T19:40:38.454Z,4.70
2023-02-01T19:43:06.451Z,4.70
2023-02-01T19:45:35.827Z,4.70
2023-02-01T19:48:07.689Z,4.70
2023-02-01T19:50:35.860Z,4.70
2023-02-01T19:53:03.886Z,4.60
2023-02-01T19:55:32.146Z,4.60
2023-02-01T19:58:02.255Z,4.60
2023-02-01T20:00:29.426Z,4.70
2023-02-01T20:02:58.381Z,4.70
2023-02-01T20:05:27.780Z,4.70
2023-02-01T20:07:55.825Z,4.70
2023-02-01T20:10:24.262Z,4.70
2023-02-01T20:12:52.248Z,4.70
2023-02-01T20:15:22.061Z,4.70
2023-02-01T20:17:50.283Z,4.70
2023-02-01T20:20:18.572Z,4.70
2023-02-01T20:22:47.958Z,4.70
2023-02-01T20:25:16.092Z,4.60
2023-02-01T20:27:44.959Z,4.60
2023-02-01T20:30:19.885Z,4.60
2023-02-01T20:32:48.817Z,4.60
2023-02-01T20:35:17.039Z,4.60
2023-02-01T20:37:45.055Z,4.60
2023-02-01T20:40:15.048Z,4.70
2023-02-01T20:42:43.025Z,4.70
2023-02-01T20:45:11.607Z,4.70
2023-02-01T20:47:41.416Z,4.70
2023-02-01T20:50:10.963Z,4.70
2023-02-01T20:52:39.092Z,4.70
2023-02-01T20:55:08.593Z,4.80
2023-02-01T20:57:38.144Z,4.80
2023-02-01T21:00:10.067Z,4.70
2023-02-01T21:02:38.330Z,4.80
2023-02-01T21:05:07.085Z,4.80
2023-02-01T21:07:35.162Z,4.80
2023-02-01T21:10:04.023Z,4.80
2023-02-01T21:12:32.358Z,4.80
2023-02-01T21:15:01.807Z,4.80
2023-02-01T21:17:31.405Z,4.80
2023-02-01T21:19:59.689Z,4.80
2023-02-01T21:22:27.686Z,4.80
2023-02-01T21:24:55.682Z,4.70
2023-02-01T21:27:23.690Z,4.70
2023-02-01T21:29:51.694Z,4.70
2023-02-01T21:32:21.601Z,4.70
2023-02-01T21:34:49.588Z,4.60
2023-02-01T21:37:17.576Z,4.60
2023-02-01T21:39:45.728Z,4.60
2023-02-01T21:42:17.591Z,4.50
2023-02-01T21:44:47.525Z,4.60
2023-02-01T21:47:17.846Z,4.60
2023-02-01T21:49:48.212Z,4.60
2023-02-01T21:52:17.668Z,4.60
2023-02-01T21:54:46.134Z,4.60
2023-02-01T21:57:14.225Z,4.60
2023-02-01T21:59:44.088Z,4.50
2023-02-01T22:02:14.539Z,4.50
2023-02-01T22:04:42.826Z,4.50
2023-02-01T22:07:12.857Z,4.50
2023-02-01T22:09:41.069Z,4.50
2023-02-01T22:12:11.404Z,4.50
2023-02-01T22:14:39.498Z,4.40
2023-02-01T22:17:08.227Z,4.40
2023-02-01T22:19:36.198Z,4.30
2023-02-01T22:22:04.209Z,4.30
2023-02-01T22:24:34.602Z,4.30
2023-02-01T22:27:13.628Z,4.30
2023-02-01T22:29:43.554Z,4.20
2023-02-01T22:32:13.754Z,4.20
2023-02-01T22:34:42.020Z,4.10
2023-02-01T22:37:11.264Z,4.10
2023-02-01T22:39:41.471Z,4.10
2023-02-01T22:42:09.591Z,4.10
2023-02-01T22:44:37.628Z,4.10
2023-02-01T22:47:05.798Z,4.00
2023-02-01T22:49:33.852Z,4.10
2023-02-01T22:52:01.866Z,4.10
2023-02-01T22:54:29.877Z,4.10
2023-02-01T22:57:00.258Z,4.00
2023-02-01T22:59:28.322Z,4.00
2023-02-01T23:01:56.408Z,4.00
2023-02-01T23:04:24.452Z,4.00
2023-02-01T23:06:53.071Z,4.00
2023-02-01T23:09:23.762Z,3.90
2023-02-01T23:11:52.214Z,3.90
2023-02-01T23:14:22.050Z,3.90
2023-02-01T23:16:50.603Z,3.90
2023-02-01T23:19:20.431Z,3.90
2023-02-01T23:21:48.661Z,3.90
2023-02-01T23:24:16.748Z,3.90
2023-02-01T23:26:44.823Z,3.90
2023-02-01T23:29:18.619Z,3.90
2023-02-01T23:31:48.177Z,3.90
2023-02-01T23:34:16.277Z,4.00
2023-02-01T23:36:44.315Z,4.00
2023-02-01T23:39:12.348Z,4.00
2023-02-01T23:41:40.369Z,4.00
2023-02-01T23:44:08.485Z,4.10
2023-02-01T23:46:38.026Z,4.10
2023-02-01T23:49:09.469Z,4.10
2023-02-01T23:51:38.002Z,4.10
2023-02-01T23:54:06.209Z,4.10
2023-02-01T23:56:36.328Z,4.20
2023-02-01T23:59:06.006Z,4.20
